Terminal Aerodrome Forecast
Issued by NWS Cleveland, OH

Home | Current Version | Previous Version | Text Only | Print | Product List | Glossary On
Versions: 1 2 3 4 5 6 7 8 9 10 11 12 13 14 15 16 17 18 19 20 21 22 23
618
FTUS41 KCLE 140521
TAFYNG
TAF
KYNG 140521Z 1406/1506 30005KT 2SM -SN OVC015
      TEMPO 1406/1408 5SM -SN BKN030
     FM140800 28005KT P6SM -SN BKN035
     FM141000 24004KT P6SM BKN035
     FM141700 14005KT P6SM BKN035 OVC120=

USA.gov is the U.S. government's official web portal to all federal, state and local government web resources and services.